createdAt,value
2022-08-20T00:02:30.062Z,41.72
2022-08-20T00:07:35.295Z,41.70
2022-08-20T00:12:44.161Z,41.19
2022-08-20T00:17:48.106Z,41.36
2022-08-20T00:22:53.398Z,41.75
2022-08-20T00:27:57.648Z,42.34
2022-08-20T00:33:04.438Z,42.65
2022-08-20T00:38:09.946Z,42.73
2022-08-20T00:43:35.562Z,42.83
2022-08-20T00:48:42.598Z,43.46
2022-08-20T00:53:47.847Z,43.52
2022-08-20T00:58:52.901Z,43.60
2022-08-20T01:03:56.669Z,43.63
2022-08-20T01:09:02.667Z,44.12
2022-08-20T01:14:11.022Z,44.33
2022-08-20T01:19:29.708Z,44.72
2022-08-20T01:24:39.270Z,45.44
2022-08-20T01:29:44.867Z,45.42
2022-08-20T01:34:48.449Z,45.68
2022-08-20T01:39:52.067Z,45.74
2022-08-20T01:44:58.032Z,45.77
2022-08-20T01:50:15.640Z,45.70
2022-08-20T01:55:22.268Z,46.45
2022-08-20T02:00:28.216Z,46.32
2022-08-20T02:05:32.273Z,46.43
2022-08-20T02:10:36.020Z,47.19
2022-08-20T02:15:43.170Z,47.82
2022-08-20T02:20:47.766Z,47.89
2022-08-20T02:25:51.401Z,48.43
2022-08-20T02:30:56.710Z,48.69
2022-08-20T02:36:00.342Z,49.04
2022-08-20T02:41:03.990Z,49.35
2022-08-20T02:46:09.514Z,49.90
2022-08-20T02:51:13.237Z,50.12
2022-08-20T02:56:17.039Z,50.23
2022-08-20T03:01:22.301Z,51.57
2022-08-20T03:06:26.303Z,51.88
2022-08-20T03:11:29.997Z,52.56
2022-08-20T03:16:35.264Z,52.44
2022-08-20T03:21:38.861Z,52.01
2022-08-20T03:26:42.602Z,52.89
2022-08-20T03:31:47.894Z,52.80
2022-08-20T03:36:51.458Z,53.27
2022-08-20T03:41:55.077Z,53.42
2022-08-20T03:47:00.290Z,53.97
2022-08-20T03:52:04.317Z,54.75
2022-08-20T03:57:13.257Z,54.90
2022-08-20T04:02:18.689Z,55.41
2022-08-20T04:07:24.667Z,55.07
2022-08-20T04:12:28.614Z,54.89
2022-08-20T04:17:33.851Z,56.06
2022-08-20T04:22:36.701Z,57.34
2022-08-20T04:27:40.853Z,57.23
2022-08-20T04:32:46.087Z,57.92
2022-08-20T04:37:49.058Z,58.94
2022-08-20T04:42:53.273Z,58.03
2022-08-20T04:48:03.859Z,58.50
2022-08-20T04:53:11.135Z,59.47
2022-08-20T04:58:17.752Z,59.50
2022-08-20T05:03:23.626Z,59.40
2022-08-20T05:08:28.599Z,59.23
2022-08-20T05:13:32.274Z,59.18
2022-08-20T05:18:37.523Z,60.02
2022-08-20T05:23:41.311Z,59.83
2022-08-20T05:28:47.218Z,60.21
2022-08-20T05:34:02.999Z,60.72
2022-08-20T05:39:06.662Z,60.70
2022-08-20T05:44:11.422Z,61.02
2022-08-20T05:49:18.921Z,62.00
2022-08-20T05:54:23.105Z,61.59
2022-08-20T05:59:27.118Z,61.59
2022-08-20T06:04:32.467Z,62.31
2022-08-20T06:09:36.165Z,62.00
2022-08-20T06:14:39.863Z,62.33
2022-08-20T06:19:46.925Z,63.24
2022-08-20T06:24:50.641Z,62.49
2022-08-20T06:29:54.900Z,62.72
2022-08-20T06:35:01.067Z,63.12
2022-08-20T06:40:07.621Z,63.46
2022-08-20T06:45:12.157Z,63.84
2022-08-20T06:50:19.902Z,63.64
2022-08-20T06:55:23.949Z,63.65
2022-08-20T07:00:28.933Z,63.42
2022-08-20T07:05:35.976Z,64.54
2022-08-20T07:10:39.865Z,64.74
2022-08-20T07:15:44.170Z,65.56
2022-08-20T07:20:49.862Z,66.75
2022-08-20T07:25:54.613Z,65.62
2022-08-20T07:30:58.519Z,65.25
2022-08-20T07:36:17.665Z,65.01
2022-08-20T07:41:21.597Z,65.10
2022-08-20T07:46:25.198Z,65.77
2022-08-20T07:51:36.552Z,65.80
2022-08-20T07:56:40.158Z,65.53
2022-08-20T08:01:44.037Z,66.13
2022-08-20T08:06:49.966Z,67.46
2022-08-20T08:11:53.588Z,66.57
2022-08-20T08:17:00.751Z,66.01
2022-08-20T08:22:07.473Z,66.82
2022-08-20T08:27:11.699Z,67.18
2022-08-20T08:32:15.269Z,66.69
2022-08-20T08:37:20.545Z,66.85
2022-08-20T08:42:30.995Z,67.19
2022-08-20T08:47:39.942Z,67.45
2022-08-20T08:52:54.998Z,67.30
2022-08-20T08:58:16.487Z,66.61
2022-08-20T09:03:27.221Z,67.52
2022-08-20T09:08:36.631Z,67.60
2022-08-20T09:13:41.148Z,66.90
2022-08-20T09:18:44.995Z,67.95
2022-08-20T09:23:50.218Z,67.88
2022-08-20T09:28:53.788Z,67.78
2022-08-20T09:33:57.351Z,67.25
2022-08-20T09:39:03.357Z,67.79
2022-08-20T09:44:07.065Z,68.62
2022-08-20T09:49:10.686Z,68.26
2022-08-20T09:54:16.120Z,68.54
2022-08-20T09:59:19.727Z,67.62
2022-08-20T10:04:23.369Z,68.10
2022-08-20T10:09:28.658Z,68.07
2022-08-20T10:14:32.413Z,67.54
2022-08-20T10:19:36.118Z,67.99
2022-08-20T10:24:41.356Z,68.39
2022-08-20T10:29:47.021Z,68.22
2022-08-20T10:34:50.024Z,69.01
2022-08-20T10:39:56.097Z,68.39
2022-08-20T10:44:59.719Z,67.87
2022-08-20T10:50:05.582Z,68.74
2022-08-20T10:55:10.575Z,69.91
2022-08-20T11:00:17.121Z,68.80
2022-08-20T11:05:20.767Z,69.05
2022-08-20T11:10:27.716Z,68.83
2022-08-20T11:15:31.636Z,68.54
2022-08-20T11:20:36.311Z,69.33
2022-08-20T11:25:41.520Z,69.27
2022-08-20T11:30:45.120Z,68.99
2022-08-20T11:35:50.080Z,69.05
2022-08-20T11:40:55.494Z,69.20
2022-08-20T11:45:59.258Z,69.04
2022-08-20T11:51:02.812Z,69.00
2022-08-20T11:56:08.650Z,69.18
2022-08-20T12:01:17.307Z,69.02
2022-08-20T12:06:20.870Z,69.41
2022-08-20T12:11:27.108Z,69.47
2022-08-20T12:16:30.664Z,69.39
2022-08-20T12:21:35.101Z,69.31
2022-08-20T12:26:40.377Z,70.14
2022-08-20T12:31:43.974Z,70.12
2022-08-20T12:36:47.555Z,70.31
2022-08-20T12:41:52.762Z,70.19
2022-08-20T12:47:08.045Z,70.31
2022-08-20T12:52:11.640Z,69.90
2022-08-20T12:57:17.675Z,70.60
2022-08-20T13:02:21.316Z,69.82
2022-08-20T13:07:24.948Z,70.73
2022-08-20T13:12:30.215Z,70.71
2022-08-20T13:17:38.883Z,70.63
2022-08-20T13:22:43.899Z,71.15
2022-08-20T13:27:49.526Z,70.25
2022-08-20T13:32:53.299Z,70.13
2022-08-20T13:37:56.922Z,70.61
2022-08-20T13:43:06.169Z,71.84
2022-08-20T13:48:15.176Z,71.25
2022-08-20T13:53:19.037Z,72.01
2022-08-20T13:58:24.286Z,72.04
2022-08-20T14:03:27.843Z,72.54
2022-08-20T14:08:31.588Z,72.23
2022-08-20T14:13:36.804Z,72.25
2022-08-20T14:18:40.382Z,72.69
2022-08-20T14:23:44.033Z,73.10
2022-08-20T14:28:49.247Z,73.06
2022-08-20T14:33:52.826Z,72.28
2022-08-20T14:38:56.395Z,71.26
2022-08-20T14:44:01.602Z,69.53
2022-08-20T14:49:09.041Z,68.78
2022-08-20T14:54:12.643Z,68.64
2022-08-20T14:59:17.831Z,68.15
2022-08-20T15:04:21.406Z,66.81
2022-08-20T15:09:25.001Z,65.96
2022-08-20T15:14:30.293Z,64.62
2022-08-20T15:19:36.457Z,63.79
2022-08-20T15:24:40.112Z,61.67
2022-08-20T15:29:48.019Z,59.76
2022-08-20T15:34:51.612Z,58.67
2022-08-20T15:39:56.294Z,57.18
2022-08-20T15:45:01.565Z,55.41
2022-08-20T15:50:14.116Z,52.93
2022-08-20T15:55:18.245Z,51.66
2022-08-20T16:00:26.228Z,49.58
2022-08-20T16:05:40.058Z,48.15
2022-08-20T16:10:54.695Z,47.67
2022-08-20T16:16:05.980Z,47.67
2022-08-20T16:21:13.723Z,47.03
2022-08-20T16:26:33.036Z,45.06
2022-08-20T16:31:46.128Z,43.98
2022-08-20T16:37:03.538Z,43.24
2022-08-20T16:42:10.793Z,43.56
2022-08-20T16:47:19.478Z,43.04
2022-08-20T16:52:23.157Z,42.87
2022-08-20T16:57:28.733Z,43.08
2022-08-20T17:02:33.973Z,42.16
2022-08-20T17:07:50.726Z,42.24
2022-08-20T17:12:57.636Z,41.58
2022-08-20T17:18:20.938Z,41.18
2022-08-20T17:23:24.552Z,41.80
2022-08-20T17:28:30.824Z,41.95
2022-08-20T17:33:51.689Z,41.53
2022-08-20T17:38:57.602Z,40.90
2022-08-20T17:44:04.001Z,40.69
2022-08-20T17:49:15.107Z,41.19
2022-08-20T17:54:23.134Z,40.55
2022-08-20T17:59:59.556Z,40.10
2022-08-20T18:04:58.285Z,40.35
2022-08-20T18:10:07.197Z,39.76
2022-08-20T18:15:16.202Z,39.12
2022-08-20T18:20:50.711Z,39.51
2022-08-20T18:25:58.467Z,39.91
2022-08-20T18:31:04.110Z,39.64
2022-08-20T18:36:23.274Z,39.44
2022-08-20T18:41:30.462Z,39.44
2022-08-20T18:46:34.894Z,38.66
2022-08-20T18:51:41.798Z,37.53
2022-08-20T18:56:45.831Z,37.60
2022-08-20T19:01:50.787Z,37.23
2022-08-20T19:07:00.079Z,36.58
2022-08-20T19:12:24.310Z,35.08
2022-08-20T19:17:57.544Z,35.87
2022-08-20T19:23:07.558Z,36.41
2022-08-20T19:28:20.990Z,35.89
2022-08-20T19:33:29.885Z,35.71
2022-08-20T19:38:35.661Z,35.40
2022-08-20T19:43:44.000Z,34.39
2022-08-20T19:49:00.664Z,34.74
2022-08-20T19:54:06.011Z,34.42
2022-08-20T19:59:11.134Z,34.53
2022-08-20T20:04:18.400Z,34.37
2022-08-20T20:09:26.155Z,34.55
2022-08-20T20:14:31.804Z,34.45
2022-08-20T20:19:47.149Z,34.42
2022-08-20T20:25:05.307Z,34.92
2022-08-20T20:30:12.922Z,34.50
2022-08-20T20:35:27.586Z,33.38
2022-08-20T20:40:36.084Z,34.27
2022-08-20T20:45:42.771Z,33.79
2022-08-20T20:50:47.346Z,34.00
2022-08-20T20:55:58.142Z,33.77
2022-08-20T21:01:01.741Z,33.50
2022-08-20T21:06:05.587Z,32.74
2022-08-20T21:11:12.876Z,32.69
2022-08-20T21:16:17.046Z,32.79
2022-08-20T21:21:20.617Z,32.53
2022-08-20T21:26:26.853Z,32.29
2022-08-20T21:31:33.716Z,32.79
2022-08-20T21:36:37.548Z,31.99
2022-08-20T21:41:42.606Z,30.99
2022-08-20T21:46:46.552Z,30.89
2022-08-20T21:51:50.617Z,30.95
2022-08-20T21:56:59.062Z,30.04
2022-08-20T22:02:02.633Z,29.85
2022-08-20T22:07:07.478Z,29.79
2022-08-20T22:12:18.841Z,29.35
2022-08-20T22:17:22.494Z,30.24
2022-08-20T22:22:26.060Z,30.26
2022-08-20T22:27:31.472Z,30.68
2022-08-20T22:32:51.320Z,30.96
2022-08-20T22:37:55.925Z,31.08
2022-08-20T22:43:01.147Z,30.15
2022-08-20T22:48:06.326Z,31.16
2022-08-20T22:53:10.933Z,31.16
2022-08-20T22:58:16.348Z,31.33
2022-08-20T23:03:23.500Z,32.15
2022-08-20T23:08:43.967Z,32.36
2022-08-20T23:13:49.225Z,32.52
2022-08-20T23:18:53.016Z,32.91
2022-08-20T23:23:56.585Z,33.73
2022-08-20T23:29:01.851Z,33.67
2022-08-20T23:34:05.444Z,34.39
2022-08-20T23:39:09.140Z,34.08
2022-08-20T23:44:26.373Z,33.86
2022-08-20T23:49:31.937Z,34.52
2022-08-20T23:54:35.546Z,34.96
2022-08-20T23:59:40.770Z,34.79
